Time;durP1;ratioP1;P1;durP2;ratioP2;P2;SDS_P1;SDS_P2;PMS_P1;PMS_P2;Temp;Humidity;BMP_temperature;BMP_pressure;BME280_temperature;BME280_humidity;BME280_pressure;Samples;Min_cycle;Max_cycle;Signal;HPM_P1;HPM_P2
2023/07/17 00:01:32;;;;;;;5.00;1.93;;;18.60;99.90;;;;;;5111324;28;20176;-65
2023/07/17 00:03:57;;;;;;;3.07;1.20;;;18.40;99.90;;;;;;5111373;28;20210;-65
2023/07/17 00:06:23;;;;;;;4.87;2.57;;;18.50;99.90;;;;;;5110727;28;20649;-65
2023/07/17 00:08:49;;;;;;;2.63;1.37;;;18.50;99.90;;;;;;5111113;28;20333;-64
2023/07/17 00:11:14;;;;;;;3.97;1.67;;;18.60;99.90;;;;;;5100599;28;20188;-65
2023/07/17 00:13:40;;;;;;;4.20;2.00;;;18.60;99.90;;;;;;5091364;28;20758;-65
2023/07/17 00:16:05;;;;;;;4.87;1.90;;;18.70;99.90;;;;;;5091150;28;20165;-66
2023/07/17 00:18:34;;;;;;;4.23;1.70;;;18.70;99.90;;;;;;5090631;28;20614;-65
2023/07/17 00:21:00;;;;;;;8.63;1.67;;;18.70;99.90;;;;;;5098731;28;20198;-65
2023/07/17 00:23:26;;;;;;;2.50;1.27;;;18.80;99.90;;;;;;5110935;28;20890;-65
2023/07/17 00:25:52;;;;;;;3.27;1.40;;;18.70;99.90;;;;;;5110915;28;20433;-65
2023/07/17 00:28:17;;;;;;;3.93;2.00;;;18.70;99.90;;;;;;5111053;28;20544;-64
2023/07/17 00:30:43;;;;;;;3.23;1.33;;;18.60;99.90;;;;;;5110720;28;20175;-64
2023/07/17 00:33:09;;;;;;;7.53;1.53;;;18.60;99.90;;;;;;5111118;28;20179;-65
2023/07/17 00:35:35;;;;;;;2.90;1.50;;;18.60;99.90;;;;;;5110354;28;20175;-64
2023/07/17 00:38:00;;;;;;;3.40;1.80;;;18.60;99.90;;;;;;5111976;27;20184;-65
2023/07/17 00:40:26;;;;;;;5.60;2.10;;;18.70;99.90;;;;;;5130753;27;20424;-65
2023/07/17 00:42:59;;;;;;;3.97;1.50;;;18.70;99.90;;;;;;5131447;27;20228;-65
2023/07/17 00:45:25;;;;;;;3.97;1.90;;;18.80;99.90;;;;;;5114004;27;20198;-64
2023/07/17 00:47:51;;;;;;;4.70;1.70;;;18.80;99.90;;;;;;5110947;28;20452;-65
2023/07/17 00:50:18;;;;;;;4.60;2.20;;;18.80;99.90;;;;;;5105904;28;20498;-65
2023/07/17 00:52:44;;;;;;;5.63;1.63;;;18.80;99.90;;;;;;5090479;28;20973;-64
2023/07/17 00:55:12;;;;;;;6.43;1.97;;;18.80;99.90;;;;;;5089902;28;20415;-65
2023/07/17 00:57:39;;;;;;;4.13;1.33;;;18.80;99.90;;;;;;5090397;28;20457;-65
2023/07/17 01:00:08;;;;;;;5.03;1.73;;;18.80;99.90;;;;;;5089292;28;20414;-65
2023/07/17 01:02:34;;;;;;;4.13;1.67;;;18.80;99.90;;;;;;5089696;28;20418;-64
2023/07/17 01:05:00;;;;;;;4.67;1.60;;;18.80;99.90;;;;;;5089946;28;20695;-65
2023/07/17 01:07:25;;;;;;;3.83;1.43;;;18.80;99.90;;;;;;5090467;28;20406;-64
2023/07/17 01:09:52;;;;;;;7.40;1.57;;;18.80;99.90;;;;;;5089621;28;20245;-65
2023/07/17 01:12:18;;;;;;;4.60;1.70;;;18.80;99.90;;;;;;5090627;28;20176;-65
2023/07/17 01:14:44;;;;;;;2.67;1.10;;;18.80;99.90;;;;;;5090377;28;20502;-65
2023/07/17 01:17:09;;;;;;;6.97;1.70;;;18.70;99.90;;;;;;5090143;28;20177;-65
2023/07/17 01:19:35;;;;;;;7.90;2.10;;;18.70;99.90;;;;;;5098646;28;20184;-65
2023/07/17 01:22:18;;;;;;;5.33;1.97;;;18.70;99.90;;;;;;5109094;28;20217;-65
2023/07/17 01:24:44;;;;;;;6.17;1.43;;;18.80;99.90;;;;;;5121316;28;20724;-64
2023/07/17 01:27:09;;;;;;;5.70;1.60;;;18.70;99.90;;;;;;5110012;28;20492;-64
2023/07/17 01:29:35;;;;;;;3.03;1.20;;;18.70;99.90;;;;;;5110204;28;20537;-65
2023/07/17 01:32:01;;;;;;;2.97;1.50;;;18.80;99.90;;;;;;5113756;28;20539;-64
2023/07/17 01:34:26;;;;;;;5.00;1.30;;;18.80;99.90;;;;;;5114690;28;20176;-65
2023/07/17 01:36:52;;;;;;;5.77;1.73;;;18.70;99.90;;;;;;5113744;28;20861;-65
2023/07/17 01:39:17;;;;;;;5.30;2.13;;;18.70;99.90;;;;;;5125402;27;20399;-64
2023/07/17 01:41:43;;;;;;;7.13;1.80;;;18.70;99.90;;;;;;5134351;27;20163;-64
2023/07/17 01:44:09;;;;;;;3.93;1.77;;;18.70;99.90;;;;;;5128849;27;20213;-64
2023/07/17 01:46:34;;;;;;;4.93;1.47;;;18.70;99.90;;;;;;5114217;28;20273;-64
2023/07/17 01:49:00;;;;;;;2.50;1.27;;;18.60;99.90;;;;;;5114086;28;20279;-64
2023/07/17 01:51:25;;;;;;;2.80;1.43;;;18.60;99.90;;;;;;5100188;28;20172;-65
2023/07/17 01:53:51;;;;;;;2.40;1.50;;;18.60;99.90;;;;;;5093506;28;20172;-64
2023/07/17 01:56:17;;;;;;;12.30;2.30;;;18.50;99.90;;;;;;5093192;28;20180;-64
2023/07/17 01:58:42;;;;;;;3.10;1.43;;;18.50;99.90;;;;;;5093947;28;20192;-64
2023/07/17 02:01:08;;;;;;;3.70;1.50;;;18.40;99.90;;;;;;5092753;28;21045;-65
2023/07/17 02:03:36;;;;;;;3.53;1.10;;;18.50;99.90;;;;;;5093364;28;20264;-65
2023/07/17 02:06:01;;;;;;;2.40;1.33;;;18.50;99.90;;;;;;5093355;28;20214;-65
2023/07/17 02:08:27;;;;;;;2.97;1.90;;;18.50;99.90;;;;;;5092921;28;20450;-64
2023/07/17 02:10:53;;;;;;;2.70;1.20;;;18.50;99.90;;;;;;5092648;28;20195;-64
2023/07/17 02:13:19;;;;;;;5.20;1.70;;;18.50;99.90;;;;;;5093378;28;20173;-64
2023/07/17 02:15:45;;;;;;;2.90;1.30;;;18.50;99.90;;;;;;5093373;28;20195;-65
2023/07/17 02:18:10;;;;;;;3.60;1.17;;;18.50;99.90;;;;;;5093312;28;20168;-65
2023/07/17 02:20:36;;;;;;;3.10;1.40;;;18.50;99.90;;;;;;5097564;28;20449;-65
2023/07/17 02:23:02;;;;;;;2.77;1.20;;;18.50;99.90;;;;;;5113389;28;20194;-64
2023/07/17 02:25:28;;;;;;;5.80;1.30;;;18.50;99.90;;;;;;5113073;28;20265;-65
2023/07/17 02:27:53;;;;;;;3.40;1.17;;;18.50;99.90;;;;;;5113517;28;20175;-65
2023/07/17 02:30:19;;;;;;;5.00;2.10;;;18.40;99.90;;;;;;5112567;28;20410;-65
2023/07/17 02:32:44;;;;;;;5.07;1.87;;;18.40;99.90;;;;;;5113467;28;20565;-64
2023/07/17 02:35:10;;;;;;;6.00;1.60;;;18.40;99.90;;;;;;5112711;28;20172;-65
2023/07/17 02:37:36;;;;;;;4.93;1.40;;;18.30;99.90;;;;;;5113134;28;20257;-64
2023/07/17 02:40:05;;;;;;;3.97;1.70;;;18.20;99.90;;;;;;5130302;27;20175;-64
2023/07/17 02:42:30;;;;;;;2.53;1.10;;;18.20;99.90;;;;;;5133629;27;20732;-65
2023/07/17 02:44:56;;;;;;;2.80;1.23;;;18.20;99.90;;;;;;5120604;27;20516;-64
2023/07/17 02:47:22;;;;;;;6.53;1.73;;;18.20;99.90;;;;;;5112812;28;20536;-65
2023/07/17 02:49:47;;;;;;;15.80;1.70;;;18.10;99.90;;;;;;5110955;28;20215;-64
2023/07/17 02:52:13;;;;;;;2.80;1.00;;;18.10;99.90;;;;;;5112525;28;20182;-65
2023/07/17 02:54:39;;;;;;;4.53;2.10;;;18.10;99.90;;;;;;5113169;28;20247;-65
2023/07/17 02:57:05;;;;;;;4.30;1.63;;;18.10;99.90;;;;;;5112423;28;20183;-65
2023/07/17 02:59:31;;;;;;;4.47;1.70;;;18.00;99.90;;;;;;5112428;28;20183;-64
2023/07/17 03:01:57;;;;;;;3.40;1.63;;;18.10;99.90;;;;;;5112723;28;20752;-64
2023/07/17 03:04:24;;;;;;;6.27;1.47;;;18.00;99.90;;;;;;5112531;28;20779;-64
2023/07/17 03:06:49;;;;;;;2.87;1.47;;;18.00;99.90;;;;;;5112305;28;20433;-65
2023/07/17 03:09:15;;;;;;;3.00;1.50;;;17.90;99.90;;;;;;5111696;28;21142;-65
2023/07/17 03:11:40;;;;;;;5.27;2.00;;;17.90;99.90;;;;;;5098056;28;20184;-65
2023/07/17 03:14:06;;;;;;;6.43;1.73;;;17.80;99.90;;;;;;5092705;28;20185;-65
2023/07/17 03:16:31;;;;;;;4.20;1.83;;;17.80;99.90;;;;;;5092017;28;20788;-65
2023/07/17 03:18:58;;;;;;;7.90;2.03;;;17.80;99.90;;;;;;5091989;28;20177;-64
2023/07/17 03:21:23;;;;;;;4.83;1.60;;;17.70;99.90;;;;;;5091001;28;20180;-65
2023/07/17 03:23:49;;;;;;;5.57;1.40;;;17.60;99.90;;;;;;5091842;28;20753;-65
2023/07/17 03:26:15;;;;;;;5.07;1.80;;;17.60;99.90;;;;;;5104524;28;20188;-65
2023/07/17 03:28:40;;;;;;;4.83;1.43;;;17.50;99.90;;;;;;5112078;28;20217;-64
2023/07/17 03:31:07;;;;;;;2.87;1.50;;;17.50;99.90;;;;;;5111754;28;20167;-64
2023/07/17 03:33:33;;;;;;;2.97;1.50;;;17.50;99.90;;;;;;5111877;28;20174;-65
2023/07/17 03:35:59;;;;;;;6.63;2.20;;;17.40;99.90;;;;;;5111591;28;20431;-64
2023/07/17 03:38:25;;;;;;;1.63;0.83;;;17.40;99.90;;;;;;5116443;27;20409;-64
2023/07/17 03:40:51;;;;;;;3.40;1.40;;;17.30;99.90;;;;;;5132021;27;20835;-65
2023/07/17 03:43:16;;;;;;;4.00;1.57;;;17.30;99.90;;;;;;5131627;27;20520;-64
2023/07/17 03:45:42;;;;;;;4.93;2.17;;;17.30;99.90;;;;;;5112697;28;20184;-64
2023/07/17 03:48:08;;;;;;;6.10;2.30;;;17.40;99.90;;;;;;5111439;28;20202;-64
2023/07/17 03:50:33;;;;;;;4.50;1.30;;;17.40;99.90;;;;;;5104892;28;20181;-64
2023/07/17 03:52:59;;;;;;;2.20;1.30;;;17.40;99.90;;;;;;5090549;28;20675;-65
2023/07/17 03:55:24;;;;;;;4.00;1.70;;;17.40;99.90;;;;;;5090994;28;20187;-65
2023/07/17 03:57:50;;;;;;;5.30;1.63;;;17.40;99.90;;;;;;5091277;28;20177;-64
2023/07/17 04:00:16;;;;;;;4.97;1.47;;;17.40;99.90;;;;;;5090361;28;20179;-64
2023/07/17 04:02:42;;;;;;;3.87;1.60;;;17.40;99.90;;;;;;5091240;28;20169;-64
2023/07/17 04:05:08;;;;;;;3.37;1.53;;;17.40;99.90;;;;;;5090733;28;20172;-64
2023/07/17 04:07:34;;;;;;;5.10;1.77;;;17.30;99.90;;;;;;5091123;28;20410;-65
2023/07/17 04:10:00;;;;;;;3.40;1.67;;;17.20;99.90;;;;;;5102656;28;20487;-64
2023/07/17 04:12:25;;;;;;;4.70;1.97;;;17.30;99.90;;;;;;5091339;28;20180;-64
2023/07/17 04:14:51;;;;;;;2.63;1.30;;;17.20;99.90;;;;;;5090849;28;20176;-65
2023/07/17 04:17:17;;;;;;;3.87;1.53;;;17.20;99.90;;;;;;5091105;28;20248;-64
2023/07/17 04:19:42;;;;;;;2.20;1.40;;;17.20;99.90;;;;;;5090012;28;20979;-64
2023/07/17 04:22:08;;;;;;;7.63;1.63;;;17.20;99.90;;;;;;5109118;27;20184;-65
2023/07/17 04:24:34;;;;;;;2.30;1.17;;;17.20;99.90;;;;;;5110885;28;20213;-65
2023/07/17 04:27:00;;;;;;;2.80;1.50;;;17.10;99.90;;;;;;5111276;28;20182;-64
2023/07/17 04:29:26;;;;;;;4.30;1.70;;;17.10;99.90;;;;;;5110469;28;20453;-65
2023/07/17 04:31:51;;;;;;;12.50;1.93;;;17.10;99.90;;;;;;5111181;28;20621;-64
2023/07/17 04:34:17;;;;;;;6.13;2.00;;;17.20;99.90;;;;;;5111268;28;20168;-65
2023/07/17 04:36:43;;;;;;;3.37;1.60;;;17.30;99.90;;;;;;5092473;28;20171;-64
2023/07/17 04:39:08;;;;;;;2.53;1.50;;;17.20;99.90;;;;;;5120456;27;21286;-64
2023/07/17 04:41:34;;;;;;;3.30;1.30;;;17.30;99.90;;;;;;5130878;27;20274;-64
2023/07/17 04:44:00;;;;;;;4.03;2.00;;;17.30;99.90;;;;;;5126288;27;20179;-64
2023/07/17 04:46:25;;;;;;;4.97;1.80;;;17.30;99.90;;;;;;5110643;28;20238;-64
2023/07/17 04:48:51;;;;;;;2.73;1.20;;;17.40;99.90;;;;;;5110874;28;20203;-64
2023/07/17 04:51:16;;;;;;;2.70;1.53;;;17.50;99.90;;;;;;5098108;28;20626;-64
2023/07/17 04:53:42;;;;;;;5.33;2.00;;;17.50;99.90;;;;;;5089872;28;20177;-64
2023/07/17 04:56:08;;;;;;;3.20;1.80;;;17.50;99.90;;;;;;5089856;28;20203;-64
2023/07/17 04:58:33;;;;;;;4.37;2.00;;;17.50;99.90;;;;;;5090237;28;20196;-64
2023/07/17 05:01:00;;;;;;;5.00;1.80;;;17.60;99.90;;;;;;5090017;28;20173;-64
2023/07/17 05:03:27;;;;;;;4.60;2.10;;;17.60;99.90;;;;;;5090153;28;20173;-64
2023/07/17 05:05:54;;;;;;;5.00;1.60;;;17.70;99.90;;;;;;5093872;28;20480;-64
2023/07/17 05:08:20;;;;;;;7.60;1.73;;;17.70;99.90;;;;;;5094173;28;20477;-64
2023/07/17 05:11:02;;;;;;;2.17;1.20;;;17.80;99.90;;;;;;5093437;28;20438;-64
2023/07/17 05:13:28;;;;;;;5.00;1.37;;;17.90;99.90;;;;;;5094515;28;20419;-64
2023/07/17 05:15:54;;;;;;;1.90;1.20;;;17.90;99.90;;;;;;5094378;28;20402;-64
2023/07/17 05:18:19;;;;;;;4.00;1.87;;;18.00;99.90;;;;;;5094520;28;20458;-64
2023/07/17 05:20:46;;;;;;;2.90;1.47;;;18.10;99.90;;;;;;5100467;28;20191;-64
2023/07/17 05:23:12;;;;;;;3.87;1.93;;;18.20;99.90;;;;;;5114329;28;20187;-64
2023/07/17 05:25:38;;;;;;;4.10;1.47;;;18.30;99.90;;;;;;5113926;28;20413;-64
2023/07/17 05:28:04;;;;;;;4.43;1.63;;;18.30;99.90;;;;;;5114497;28;20886;-64
2023/07/17 05:30:33;;;;;;;2.80;1.50;;;18.40;99.90;;;;;;5114139;28;20164;-64
2023/07/17 05:32:59;;;;;;;3.50;1.73;;;18.50;99.90;;;;;;5114381;28;20191;-64
2023/07/17 05:35:24;;;;;;;2.90;1.50;;;18.60;99.90;;;;;;5114446;28;20413;-64
2023/07/17 05:37:50;;;;;;;3.50;1.53;;;18.70;99.90;;;;;;5113949;28;20437;-64
2023/07/17 05:40:16;;;;;;;4.10;1.80;;;18.70;99.90;;;;;;5133458;27;20174;-64
2023/07/17 05:42:42;;;;;;;4.87;1.83;;;18.80;99.90;;;;;;5134836;27;20169;-65
2023/07/17 05:45:09;;;;;;;5.00;1.60;;;18.80;99.90;;;;;;5119775;27;20176;-63
2023/07/17 05:47:36;;;;;;;4.40;1.80;;;18.90;99.90;;;;;;5114217;28;20413;-64
2023/07/17 05:50:01;;;;;;;4.70;1.87;;;18.80;99.90;;;;;;5111775;28;20452;-65
2023/07/17 05:52:27;;;;;;;4.40;1.63;;;18.80;99.90;;;;;;5099289;28;21179;-64
2023/07/17 05:54:52;;;;;;;8.50;2.20;;;18.70;99.90;;;;;;5113097;28;20168;-64
2023/07/17 05:57:18;;;;;;;3.50;1.70;;;18.70;99.90;;;;;;5113384;28;20870;-64
2023/07/17 05:59:43;;;;;;;2.83;1.70;;;18.60;99.90;;;;;;5112353;28;20196;-64
2023/07/17 06:02:09;;;;;;;4.13;1.87;;;18.70;99.90;;;;;;5113008;28;20688;-64
2023/07/17 06:04:35;;;;;;;6.37;1.47;;;18.80;99.90;;;;;;5113421;28;20204;-64
2023/07/17 06:07:00;;;;;;;3.97;1.97;;;18.80;99.90;;;;;;5113963;28;20179;-64
2023/07/17 06:09:26;;;;;;;7.60;2.17;;;18.80;99.90;;;;;;5112757;28;20234;-65
2023/07/17 06:11:51;;;;;;;8.63;1.97;;;18.90;99.90;;;;;;5098569;28;20223;-64
2023/07/17 06:14:18;;;;;;;7.43;1.70;;;19.00;99.90;;;;;;5092925;28;20482;-64
2023/07/17 06:16:43;;;;;;;5.33;2.10;;;19.10;99.90;;;;;;5092337;28;20626;-64
2023/07/17 06:19:09;;;;;;;2.77;1.37;;;19.10;99.90;;;;;;5092754;28;20410;-63
2023/07/17 06:21:35;;;;;;;6.10;2.07;;;19.30;99.90;;;;;;5120221;27;20402;-65
2023/07/17 06:24:00;;;;;;;9.77;2.10;;;19.40;99.90;;;;;;5133552;27;20175;-64
2023/07/17 06:26:26;;;;;;;2.93;1.43;;;19.50;99.90;;;;;;5104164;27;20726;-64
2023/07/17 06:28:51;;;;;;;3.10;1.40;;;19.50;99.90;;;;;;5093116;28;20199;-65
2023/07/17 06:31:17;;;;;;;7.43;1.73;;;19.60;99.90;;;;;;5092335;28;20180;-64
2023/07/17 06:33:43;;;;;;;7.47;2.63;;;19.60;99.90;;;;;;5092899;28;20179;-64
2023/07/17 06:36:08;;;;;;;8.23;1.80;;;19.70;99.90;;;;;;5092868;28;20657;-64
2023/07/17 06:38:34;;;;;;;4.13;1.77;;;19.70;99.90;;;;;;5098083;28;20194;-65
2023/07/17 06:41:00;;;;;;;5.80;1.80;;;19.80;99.90;;;;;;5112449;28;20252;-65
2023/07/17 06:43:25;;;;;;;8.43;2.03;;;20.00;99.40;;;;;;5113138;28;20176;-64
2023/07/17 06:45:51;;;;;;;4.10;1.53;;;20.00;99.30;;;;;;5105447;28;20736;-64
2023/07/17 06:48:17;;;;;;;7.80;1.57;;;20.10;99.50;;;;;;5112967;28;20211;-64
2023/07/17 06:50:44;;;;;;;2.80;1.50;;;20.20;99.60;;;;;;5111239;28;20414;-64
2023/07/17 06:53:09;;;;;;;4.80;1.70;;;20.40;98.70;;;;;;5112994;28;20198;-64
2023/07/17 06:55:35;;;;;;;4.60;1.80;;;20.40;99.10;;;;;;5111233;28;20422;-64
2023/07/17 06:58:00;;;;;;;3.40;1.27;;;20.60;98.30;;;;;;5109666;27;20187;-65
2023/07/17 07:00:26;;;;;;;10.13;2.00;;;20.70;96.40;;;;;;5126196;27;20191;-64
2023/07/17 07:02:53;;;;;;;4.13;2.13;;;20.80;96.90;;;;;;5112800;28;20164;-65
2023/07/17 07:05:19;;;;;;;7.73;2.77;;;20.90;96.30;;;;;;5112635;28;20277;-64
2023/07/17 07:07:45;;;;;;;4.13;2.47;;;21.00;96.00;;;;;;5112542;28;20469;-64
2023/07/17 07:10:10;;;;;;;13.33;2.13;;;21.10;96.10;;;;;;5111304;28;20200;-64
2023/07/17 07:12:36;;;;;;;5.20;1.87;;;21.20;94.90;;;;;;5111298;28;20190;-64
2023/07/17 07:15:02;;;;;;;3.77;2.00;;;21.30;94.80;;;;;;5112641;28;20168;-64
2023/07/17 07:17:27;;;;;;;6.23;2.10;;;21.40;94.90;;;;;;5112386;28;20198;-64
2023/07/17 07:19:53;;;;;;;3.80;1.60;;;21.60;95.30;;;;;;5112301;28;20175;-63
2023/07/17 07:22:18;;;;;;;5.60;2.67;;;21.90;94.60;;;;;;5103169;27;20528;-64
2023/07/17 07:24:46;;;;;;;5.40;2.10;;;22.00;95.30;;;;;;5110867;27;20426;-64
2023/07/17 07:27:12;;;;;;;4.10;2.07;;;22.10;92.30;;;;;;5109398;28;20179;-64
2023/07/17 07:29:37;;;;;;;6.40;2.70;;;22.40;92.10;;;;;;5106402;28;20461;-64
2023/07/17 07:32:04;;;;;;;5.03;2.23;;;22.60;91.40;;;;;;5110402;28;20204;-64
2023/07/17 07:34:29;;;;;;;7.10;2.60;;;22.70;90.20;;;;;;5110324;28;20263;-64
2023/07/17 07:36:55;;;;;;;5.63;2.20;;;23.00;88.40;;;;;;5110657;28;20488;-64
2023/07/17 07:39:21;;;;;;;4.40;2.00;;;23.20;87.50;;;;;;5121540;27;20538;-64
2023/07/17 07:41:46;;;;;;;5.40;2.60;;;23.50;85.60;;;;;;5113238;27;20180;-64
2023/07/17 07:44:12;;;;;;;3.87;2.00;;;24.00;82.40;;;;;;5103803;28;20837;-62
2023/07/17 07:46:37;;;;;;;6.20;2.53;;;24.60;81.90;;;;;;5109537;28;20183;-62
2023/07/17 07:49:03;;;;;;;8.03;3.00;;;25.20;79.00;;;;;;5109588;28;20664;-62
2023/07/17 07:51:29;;;;;;;6.97;3.07;;;25.90;75.40;;;;;;5096445;28;20213;-62
2023/07/17 07:53:54;;;;;;;4.78;1.92;;;26.40;72.80;;;;;;5089141;28;20168;-62
2023/07/17 07:56:20;;;;;;;4.15;2.22;;;27.00;71.30;;;;;;5089255;28;20828;-62
2023/07/17 07:58:46;;;;;;;5.55;2.50;;;27.20;68.00;;;;;;5089485;28;20202;-63
2023/07/17 08:01:11;;;;;;;4.65;2.22;;;27.10;68.20;;;;;;5089292;28;20172;-62
2023/07/17 08:03:39;;;;;;;3.50;2.38;;;26.90;66.90;;;;;;5103763;28;20895;-63
2023/07/17 08:06:04;;;;;;;7.75;2.72;;;27.10;68.30;;;;;;5111112;28;20167;-62
2023/07/17 08:08:30;;;;;;;8.00;2.40;;;27.50;65.60;;;;;;5110417;28;20595;-62
2023/07/17 08:10:55;;;;;;;5.53;1.90;;;27.40;65.00;;;;;;5103696;28;20692;-62
2023/07/17 08:13:21;;;;;;;5.43;2.13;;;27.80;65.30;;;;;;5091272;28;20172;-62
2023/07/17 08:15:47;;;;;;;4.82;2.30;;;28.10;66.30;;;;;;5090655;28;20645;-63
2023/07/17 08:18:13;;;;;;;3.58;2.10;;;28.30;65.80;;;;;;5090735;28;20633;-63
2023/07/17 08:20:38;;;;;;;5.72;2.53;;;29.40;63.30;;;;;;5095573;28;20179;-63
2023/07/17 08:23:05;;;;;;;3.88;2.42;;;29.00;63.00;;;;;;5110794;28;20250;-63
2023/07/17 08:25:31;;;;;;;4.75;2.42;;;28.90;62.00;;;;;;5110438;28;20187;-63
2023/07/17 08:27:57;;;;;;;4.65;2.20;;;29.10;61.80;;;;;;5111155;28;20191;-63
2023/07/17 08:30:22;;;;;;;4.75;2.00;;;28.40;62.80;;;;;;5110526;28;20221;-62
2023/07/17 08:32:48;;;;;;;6.07;2.50;;;28.00;62.60;;;;;;5110761;28;20258;-63
2023/07/17 08:35:13;;;;;;;4.05;1.95;;;28.10;64.50;;;;;;5111195;28;20183;-63
2023/07/17 08:37:39;;;;;;;6.13;2.67;;;28.00;64.80;;;;;;5110626;28;20167;-62
2023/07/17 08:40:05;;;;;;;6.00;2.33;;;27.60;66.20;;;;;;5127807;27;20850;-62
2023/07/17 08:42:33;;;;;;;6.78;1.98;;;27.70;65.50;;;;;;5130738;27;20171;-62
2023/07/17 08:44:59;;;;;;;3.95;2.20;;;27.90;63.80;;;;;;5117763;27;20179;-62
2023/07/17 08:47:25;;;;;;;3.83;2.55;;;27.40;64.80;;;;;;5110420;28;20195;-62
2023/07/17 08:49:51;;;;;;;15.02;1.83;;;27.20;63.80;;;;;;5108483;28;20202;-62
2023/07/17 08:52:18;;;;;;;3.33;1.92;;;27.60;62.60;;;;;;5091028;28;20222;-62
2023/07/17 08:54:44;;;;;;;9.57;2.92;;;27.30;63.20;;;;;;5089991;28;20163;-62
2023/07/17 08:57:10;;;;;;;5.28;2.55;;;27.70;66.60;;;;;;5110012;28;20765;-62
2023/07/17 08:59:37;;;;;;;4.97;2.33;;;27.70;62.00;;;;;;5109835;28;20195;-62
2023/07/17 09:02:04;;;;;;;4.20;2.25;;;27.60;64.80;;;;;;5110335;28;20228;-61
2023/07/17 09:04:31;;;;;;;4.97;2.22;;;27.40;63.70;;;;;;5110421;28;20175;-61
2023/07/17 09:06:56;;;;;;;7.38;2.03;;;27.20;64.20;;;;;;5110609;28;20171;-61
2023/07/17 09:09:22;;;;;;;6.70;2.73;;;26.40;63.60;;;;;;5109618;28;20713;-61
2023/07/17 09:12:07;;;;;;;6.93;2.70;;;25.80;65.80;;;;;;5096922;28;20172;-62
2023/07/17 09:14:34;;;;;;;4.63;2.20;;;25.80;66.50;;;;;;5089902;28;20187;-61
2023/07/17 09:17:01;;;;;;;15.93;3.30;;;25.30;69.30;;;;;;5090138;28;20176;-61
2023/07/17 09:19:31;;;;;;;3.93;2.03;;;25.50;66.90;;;;;;5089871;28;20172;-61
2023/07/17 09:22:02;;;;;;;7.03;2.27;;;25.80;69.80;;;;;;5107132;28;20240;-62
2023/07/17 09:24:28;;;;;;;5.32;2.05;;;26.60;64.40;;;;;;5109664;28;20946;-61
2023/07/17 09:26:57;;;;;;;3.78;2.50;;;26.70;67.20;;;;;;5110402;28;20187;-62
2023/07/17 09:29:24;;;;;;;5.65;2.25;;;27.10;64.00;;;;;;5109478;28;20224;-61
2023/07/17 09:31:50;;;;;;;6.45;3.00;;;27.20;64.70;;;;;;5115613;28;20186;-61
2023/07/17 09:34:16;;;;;;;3.15;1.63;;;26.60;66.20;;;;;;5110104;28;20640;-62
2023/07/17 09:36:42;;;;;;;5.60;2.38;;;26.80;64.90;;;;;;5110644;28;20171;-62
2023/07/17 09:39:09;;;;;;;4.65;2.47;;;27.20;65.70;;;;;;5119876;28;20593;-62
2023/07/17 09:41:35;;;;;;;6.60;2.17;;;27.60;62.20;;;;;;5130832;28;20596;-62
2023/07/17 09:44:06;;;;;;;10.50;2.38;;;27.70;61.60;;;;;;5125468;28;20194;-62
2023/07/17 09:46:37;;;;;;;5.95;2.22;;;27.60;61.50;;;;;;5109619;28;20183;-62
2023/07/17 09:49:04;;;;;;;7.13;3.25;;;27.60;60.50;;;;;;5109933;28;20202;-62
2023/07/17 09:51:30;;;;;;;4.40;2.65;;;27.20;61.40;;;;;;5096673;28;20209;-62
2023/07/17 09:53:58;;;;;;;7.18;2.22;;;27.20;61.20;;;;;;5092423;28;20263;-62
2023/07/17 09:56:30;;;;;;;3.60;2.15;;;26.70;61.80;;;;;;5107669;28;20182;-62
2023/07/17 09:59:05;;;;;;;10.07;3.17;;;26.10;63.60;;;;;;5113682;28;20195;-61
2023/07/17 13:19:18;;;;;;;6.60;3.17;;;27.90;64.10;;;;;;5126064;27;20553;-73
2023/07/17 13:21:43;;;;;;;6.80;2.10;;;27.70;64.70;;;;;;5127336;27;20182;-73
2023/07/17 13:24:09;;;;;;;6.07;2.77;;;27.50;64.70;;;;;;5123166;27;20182;-73
2023/07/17 13:26:35;;;;;;;5.53;2.43;;;27.50;64.30;;;;;;5126086;28;20187;-73
2023/07/17 13:29:01;;;;;;;3.90;2.23;;;27.60;65.60;;;;;;5126697;27;20171;-73
2023/07/17 13:31:27;;;;;;;4.53;2.13;;;27.70;65.10;;;;;;5127583;28;20183;-73
2023/07/17 13:33:52;;;;;;;5.80;2.93;;;27.70;64.80;;;;;;5126527;27;20182;-73
2023/07/17 13:36:18;;;;;;;3.67;2.20;;;27.50;65.60;;;;;;5127328;28;20171;-73
2023/07/17 13:38:44;;;;;;;7.30;2.37;;;27.50;65.40;;;;;;5126789;28;20238;-72
2023/07/17 13:41:18;;;;;;;4.37;2.47;;;27.50;64.70;;;;;;5123489;27;20222;-73
2023/07/17 13:43:44;;;;;;;5.50;2.43;;;27.20;64.60;;;;;;5107095;28;20211;-72
2023/07/17 13:46:09;;;;;;;4.07;2.00;;;27.20;65.80;;;;;;5116731;28;20187;-72
2023/07/17 13:48:35;;;;;;;7.03;2.67;;;26.90;66.30;;;;;;5124165;28;20206;-72
2023/07/17 13:51:01;;;;;;;3.37;2.37;;;26.70;68.60;;;;;;5126531;27;20189;-74
2023/07/17 13:53:26;;;;;;;5.23;2.53;;;26.50;67.70;;;;;;5126487;28;20629;-73
2023/07/17 13:55:52;;;;;;;5.60;2.80;;;26.40;68.80;;;;;;5125510;27;20532;-73
2023/07/17 13:58:17;;;;;;;4.53;2.43;;;26.30;68.40;;;;;;5126428;28;20207;-73
2023/07/17 14:00:44;;;;;;;7.10;2.90;;;26.30;67.60;;;;;;5119365;27;20197;-73
2023/07/17 14:03:09;;;;;;;8.63;2.50;;;26.20;68.30;;;;;;5117468;28;20186;-73
2023/07/17 14:05:35;;;;;;;4.60;2.60;;;26.10;68.80;;;;;;5120360;28;20420;-71
2023/07/17 14:08:01;;;;;;;4.70;2.33;;;26.20;69.10;;;;;;5123982;28;20209;-70
2023/07/17 14:10:27;;;;;;;4.73;2.33;;;26.20;67.00;;;;;;5124097;28;20171;-71
2023/07/17 14:12:52;;;;;;;5.97;2.50;;;26.20;68.50;;;;;;5120751;27;20179;-71
2023/07/17 14:15:18;;;;;;;4.57;2.47;;;26.30;68.60;;;;;;5118748;27;20418;-71
2023/07/17 14:17:44;;;;;;;8.17;2.80;;;26.40;67.50;;;;;;5117619;28;20521;-71
2023/07/17 14:20:10;;;;;;;5.03;2.60;;;26.30;68.60;;;;;;5106077;28;20192;-71
2023/07/17 14:22:36;;;;;;;5.33;2.50;;;26.20;67.70;;;;;;5099564;28;20183;-71
2023/07/17 14:25:04;;;;;;;6.07;2.40;;;26.10;68.10;;;;;;5091572;28;20420;-70
2023/07/17 14:27:30;;;;;;;7.73;2.63;;;26.40;67.70;;;;;;5091914;28;20196;-71
2023/07/17 14:29:55;;;;;;;6.70;2.67;;;26.40;68.80;;;;;;5092170;28;20787;-71
2023/07/17 14:32:21;;;;;;;6.80;2.10;;;26.80;67.70;;;;;;5109879;28;20182;-71
2023/07/17 14:34:48;;;;;;;7.40;2.50;;;27.00;66.50;;;;;;5112737;28;20220;-63
2023/07/17 14:37:14;;;;;;;4.43;3.00;;;26.90;67.50;;;;;;5112570;28;20282;-64
2023/07/17 14:39:40;;;;;;;4.27;2.50;;;27.20;66.90;;;;;;5112130;28;20628;-63
2023/07/17 14:42:05;;;;;;;7.13;2.90;;;27.40;66.40;;;;;;5101357;28;20577;-64
2023/07/17 14:44:31;;;;;;;6.00;2.50;;;27.50;65.70;;;;;;5092109;28;20877;-63
2023/07/17 14:46:57;;;;;;;3.50;2.23;;;27.30;66.50;;;;;;5091821;28;20836;-64
2023/07/17 14:49:22;;;;;;;4.73;2.13;;;27.40;69.20;;;;;;5091445;28;20175;-63
2023/07/17 14:51:48;;;;;;;3.30;1.97;;;27.30;67.40;;;;;;5105929;28;20175;-64
2023/07/17 14:54:14;;;;;;;7.97;3.10;;;27.50;65.40;;;;;;5111673;28;20535;-64
2023/07/17 14:56:40;;;;;;;9.87;2.30;;;27.10;66.00;;;;;;5091701;28;20176;-64
2023/07/17 14:59:05;;;;;;;6.97;2.43;;;26.80;66.60;;;;;;5108169;28;20212;-64
2023/07/17 15:01:31;;;;;;;5.67;2.43;;;26.70;66.60;;;;;;5105687;28;20759;-64
2023/07/17 15:03:56;;;;;;;4.70;2.70;;;26.50;67.20;;;;;;5105233;28;20191;-64
2023/07/17 15:06:22;;;;;;;4.97;2.40;;;26.20;67.10;;;;;;5109881;28;20194;-64
2023/07/17 15:08:48;;;;;;;5.33;2.50;;;25.90;68.10;;;;;;5110193;28;20293;-63
2023/07/17 15:11:14;;;;;;;4.50;2.10;;;25.80;68.60;;;;;;5108881;27;20262;-64
2023/07/17 15:13:39;;;;;;;4.10;1.77;;;25.60;70.00;;;;;;5100437;28;20175;-65
2023/07/17 15:16:05;;;;;;;10.53;2.60;;;25.50;69.40;;;;;;5111015;28;20511;-65
2023/07/17 15:18:31;;;;;;;3.57;1.90;;;25.40;69.40;;;;;;5112975;28;20282;-65
2023/07/17 15:20:56;;;;;;;5.50;2.30;;;25.20;70.60;;;;;;5112612;28;20566;-65
2023/07/17 15:23:22;;;;;;;5.87;2.27;;;25.20;71.40;;;;;;5112989;28;20718;-65
2023/07/17 15:25:48;;;;;;;9.63;2.77;;;25.10;70.50;;;;;;5112728;28;20175;-65
2023/07/17 15:28:14;;;;;;;5.53;2.40;;;25.00;71.70;;;;;;5112846;28;20683;-65
2023/07/17 15:30:39;;;;;;;4.57;2.40;;;25.00;71.60;;;;;;5111033;28;20916;-65
2023/07/17 15:33:05;;;;;;;4.93;2.10;;;24.80;72.20;;;;;;5112925;28;20171;-64
2023/07/17 15:35:30;;;;;;;4.03;2.07;;;24.80;71.60;;;;;;5110736;28;20171;-65
2023/07/17 15:37:56;;;;;;;8.63;3.00;;;24.70;72.40;;;;;;5112174;28;20210;-65
2023/07/17 15:40:22;;;;;;;4.33;2.10;;;24.70;73.70;;;;;;5112272;28;20190;-67
2023/07/17 15:42:47;;;;;;;9.30;2.60;;;24.80;73.30;;;;;;5111567;28;20293;-65
2023/07/17 15:45:21;;;;;;;6.70;2.43;;;24.80;72.60;;;;;;5113221;28;20186;-65
2023/07/17 15:47:47;;;;;;;6.73;2.63;;;24.70;73.00;;;;;;5112843;28;20191;-65
2023/07/17 15:50:13;;;;;;;5.80;2.50;;;24.70;73.10;;;;;;5111728;28;20423;-65
2023/07/17 15:52:38;;;;;;;10.03;2.93;;;24.70;73.10;;;;;;5111583;28;20171;-64
2023/07/17 15:55:04;;;;;;;4.53;2.27;;;24.90;73.20;;;;;;5111816;28;20171;-65
2023/07/17 15:57:30;;;;;;;6.47;2.67;;;24.90;71.30;;;;;;5110588;28;20537;-64